createdAt,value
2022-10-31T00:01:46.288Z,71.45
2022-10-31T00:04:15.566Z,71.43
2022-10-31T00:06:44.887Z,71.55
2022-10-31T00:09:15.857Z,71.41
2022-10-31T00:11:45.179Z,71.45
2022-10-31T00:14:14.408Z,71.61
2022-10-31T00:16:43.911Z,71.60
2022-10-31T00:19:13.196Z,71.65
2022-10-31T00:21:42.611Z,71.57
2022-10-31T00:24:12.570Z,71.65
2022-10-31T00:26:43.477Z,71.65
2022-10-31T00:29:13.852Z,71.55
2022-10-31T00:31:43.229Z,71.66
2022-10-31T00:34:12.395Z,71.51
2022-10-31T00:36:42.284Z,71.63
2022-10-31T00:39:16.011Z,71.54
2022-10-31T00:41:46.796Z,71.51
2022-10-31T00:44:16.434Z,71.45
2022-10-31T00:46:45.788Z,71.50
2022-10-31T00:49:14.993Z,71.58
2022-10-31T00:51:44.595Z,71.73
2022-10-31T00:54:13.840Z,71.43
2022-10-31T00:56:43.313Z,71.52
2022-10-31T00:59:13.847Z,71.58
2022-10-31T01:01:44.619Z,71.41
2022-10-31T01:04:14.030Z,71.52
2022-10-31T01:06:43.375Z,71.59
2022-10-31T01:09:12.627Z,71.53
2022-10-31T01:11:42.001Z,71.53
2022-10-31T01:14:13.739Z,71.50
2022-10-31T01:16:43.254Z,71.46
2022-10-31T01:19:12.400Z,71.54
2022-10-31T01:21:41.788Z,71.60
2022-10-31T01:24:11.423Z,71.64
2022-10-31T01:26:41.590Z,71.76
2022-10-31T01:29:13.282Z,71.71
2022-10-31T01:31:43.683Z,71.85
2022-10-31T01:34:16.824Z,71.69
2022-10-31T01:36:52.375Z,71.95
2022-10-31T01:39:22.380Z,71.83
2022-10-31T01:41:54.129Z,71.96
2022-10-31T01:45:01.089Z,72.09
2022-10-31T01:47:39.625Z,72.12
2022-10-31T01:50:22.817Z,72.12
2022-10-31T01:52:54.674Z,72.14
2022-10-31T01:55:30.442Z,72.16
2022-10-31T01:58:06.935Z,72.25
2022-10-31T02:00:37.943Z,72.44
2022-10-31T02:03:07.635Z,72.42
2022-10-31T02:05:37.932Z,72.66
2022-10-31T02:08:12.479Z,72.71
2022-10-31T02:10:44.866Z,72.64
2022-10-31T02:13:15.215Z,72.61
2022-10-31T02:15:53.715Z,72.77
2022-10-31T02:18:24.387Z,72.79
2022-10-31T02:21:04.327Z,72.90
2022-10-31T02:24:00.713Z,72.92
2022-10-31T02:27:04.936Z,72.79
2022-10-31T02:30:04.194Z,72.91
2022-10-31T02:32:52.560Z,72.86
2022-10-31T02:35:35.791Z,73.03
2022-10-31T02:38:15.395Z,73.02
2022-10-31T02:40:53.240Z,73.04
2022-10-31T02:43:37.366Z,73.03
2022-10-31T02:46:13.092Z,73.01
2022-10-31T02:48:46.762Z,73.05
2022-10-31T02:51:17.583Z,73.15
2022-10-31T02:53:46.883Z,73.05
2022-10-31T02:56:18.116Z,73.14
2022-10-31T02:58:51.080Z,73.33
2022-10-31T03:01:51.444Z,73.31
2022-10-31T03:04:48.540Z,73.17
2022-10-31T03:07:29.834Z,73.17
2022-10-31T03:10:11.702Z,73.15
2022-10-31T03:12:50.179Z,73.26
2022-10-31T03:15:25.819Z,73.16
2022-10-31T03:18:01.333Z,73.29
2022-10-31T03:20:38.653Z,73.21
2022-10-31T03:23:13.462Z,73.34
2022-10-31T03:25:44.270Z,73.23
2022-10-31T03:31:21.715Z,73.25
2022-10-31T03:33:53.323Z,73.31
2022-10-31T03:36:25.404Z,73.38
2022-10-31T03:38:56.327Z,73.37
2022-10-31T03:41:31.195Z,73.28
2022-10-31T03:44:05.370Z,73.42
2022-10-31T03:46:36.485Z,73.35
2022-10-31T03:49:06.663Z,73.33
2022-10-31T03:51:46.044Z,73.31
2022-10-31T03:54:23.177Z,73.32
2022-10-31T03:56:56.255Z,73.30
2022-10-31T03:59:31.361Z,73.28
2022-10-31T04:02:06.419Z,73.41
2022-10-31T04:04:37.306Z,73.34
2022-10-31T04:07:11.097Z,73.40
2022-10-31T04:09:45.113Z,73.42
2022-10-31T04:12:18.029Z,73.29
2022-10-31T04:15:13.579Z,73.36
2022-10-31T04:17:47.492Z,73.28
2022-10-31T04:20:19.454Z,73.24
2022-10-31T04:22:50.196Z,73.32
2022-10-31T04:25:19.652Z,73.30
2022-10-31T04:27:48.809Z,73.16
2022-10-31T04:30:18.351Z,73.30
2022-10-31T04:32:47.701Z,73.12
2022-10-31T04:35:17.222Z,73.23
2022-10-31T04:37:46.824Z,73.12
2022-10-31T04:40:18.412Z,73.14
2022-10-31T04:43:06.214Z,73.22
2022-10-31T04:45:35.652Z,73.08
2022-10-31T04:48:05.293Z,73.13
2022-10-31T04:50:37.391Z,73.11
2022-10-31T04:53:06.654Z,73.11
2022-10-31T04:55:44.443Z,73.07
2022-10-31T04:58:20.123Z,73.00
2022-10-31T05:00:49.606Z,73.02
2022-10-31T05:03:18.790Z,73.12
2022-10-31T05:05:50.065Z,73.12
2022-10-31T05:08:19.398Z,73.09
2022-10-31T05:10:53.087Z,73.03
2022-10-31T05:16:17.064Z,73.12
2022-10-31T05:19:05.252Z,73.06
2022-10-31T05:21:54.671Z,73.05
2022-10-31T05:24:23.929Z,73.00
2022-10-31T05:26:54.699Z,73.06
2022-10-31T05:29:24.064Z,73.01
2022-10-31T05:31:54.391Z,73.11
2022-10-31T05:34:43.796Z,73.10
2022-10-31T05:37:36.385Z,73.16
2022-10-31T05:40:08.547Z,73.07
2022-10-31T05:42:41.680Z,73.16
2022-10-31T05:45:12.663Z,73.22
2022-10-31T05:48:04.063Z,73.34
2022-10-31T05:50:53.422Z,73.40
2022-10-31T05:53:22.897Z,73.46
2022-10-31T05:55:52.210Z,73.56
2022-10-31T05:58:25.422Z,73.50
2022-10-31T06:01:06.808Z,73.45
2022-10-31T06:03:36.481Z,73.54
2022-10-31T06:06:08.527Z,73.44
2022-10-31T06:08:40.914Z,73.47
2022-10-31T06:11:16.576Z,73.51
2022-10-31T06:14:06.803Z,73.53
2022-10-31T06:16:49.866Z,73.62
2022-10-31T06:19:39.706Z,73.50
2022-10-31T06:22:09.146Z,73.52
2022-10-31T06:24:38.482Z,73.71
2022-10-31T06:27:20.409Z,73.61
2022-10-31T06:29:53.688Z,73.55
2022-10-31T06:32:32.384Z,73.75
2022-10-31T06:35:01.724Z,73.56
2022-10-31T06:37:31.381Z,73.69
2022-10-31T06:40:08.274Z,73.81
2022-10-31T06:43:01.973Z,73.79
2022-10-31T06:45:34.511Z,73.76
2022-10-31T06:48:23.346Z,73.75
2022-10-31T06:51:31.716Z,73.81
2022-10-31T06:54:02.446Z,73.93
2022-10-31T06:56:31.961Z,73.94
2022-10-31T06:59:02.076Z,73.99
2022-10-31T07:02:00.692Z,73.95
2022-10-31T07:04:30.087Z,74.01
2022-10-31T07:06:59.719Z,73.93
2022-10-31T07:09:29.106Z,73.98
2022-10-31T07:12:00.932Z,74.20
2022-10-31T07:14:32.065Z,74.16
2022-10-31T07:17:02.715Z,74.09
2022-10-31T07:19:38.343Z,74.17
2022-10-31T07:22:07.691Z,74.10
2022-10-31T07:24:37.663Z,74.30
2022-10-31T07:27:16.674Z,74.40
2022-10-31T07:29:47.949Z,74.40
2022-10-31T07:32:20.315Z,74.40
2022-10-31T07:34:55.308Z,74.39
2022-10-31T07:37:30.487Z,74.43
2022-10-31T07:40:01.572Z,74.35
2022-10-31T07:42:37.997Z,74.55
2022-10-31T07:45:10.365Z,74.62
2022-10-31T07:48:04.383Z,74.66
2022-10-31T07:50:52.562Z,74.85
2022-10-31T07:53:22.113Z,74.86
2022-10-31T07:55:54.982Z,75.03
2022-10-31T07:58:30.419Z,74.92
2022-10-31T08:01:01.985Z,74.93
2022-10-31T08:03:42.830Z,74.77
2022-10-31T08:06:38.245Z,74.92
2022-10-31T08:09:29.651Z,74.99
2022-10-31T08:12:02.535Z,75.11
2022-10-31T08:14:33.989Z,75.21
2022-10-31T08:17:03.809Z,75.26
2022-10-31T08:19:44.616Z,75.22
2022-10-31T08:22:16.771Z,75.34
2022-10-31T08:25:11.985Z,75.40
2022-10-31T08:27:43.124Z,75.39
2022-10-31T08:30:20.266Z,75.56
2022-10-31T08:33:14.350Z,75.51
2022-10-31T08:36:20.409Z,75.61
2022-10-31T08:38:54.600Z,75.70
2022-10-31T08:41:27.312Z,75.66
2022-10-31T08:43:56.551Z,75.72
2022-10-31T08:46:25.756Z,75.59
2022-10-31T08:48:55.824Z,75.76
2022-10-31T08:51:27.614Z,75.82
2022-10-31T08:53:59.113Z,75.81
2022-10-31T08:56:28.538Z,75.92
2022-10-31T08:58:57.871Z,75.81
2022-10-31T09:01:37.840Z,76.04
2022-10-31T09:04:08.673Z,75.85
2022-10-31T09:07:08.025Z,75.92
2022-10-31T09:09:35.339Z,76.00
2022-10-31T09:12:05.123Z,76.08
2022-10-31T09:14:46.086Z,76.01
2022-10-31T09:17:25.303Z,76.03
2022-10-31T09:20:14.795Z,76.26
2022-10-31T09:22:47.899Z,76.22
2022-10-31T09:25:17.184Z,76.50
2022-10-31T09:27:52.614Z,76.44
2022-10-31T09:30:22.079Z,76.48
2022-10-31T09:32:58.305Z,76.48
2022-10-31T09:35:29.529Z,76.50
2022-10-31T09:38:04.313Z,76.55
2022-10-31T09:40:37.299Z,76.57
2022-10-31T09:43:16.763Z,76.49
2022-10-31T09:45:58.227Z,76.57
2022-10-31T09:49:03.571Z,76.56
2022-10-31T09:51:55.965Z,76.84
2022-10-31T09:54:37.883Z,76.79
2022-10-31T09:57:12.992Z,76.83
2022-10-31T09:59:46.532Z,76.85
2022-10-31T10:02:24.163Z,76.75
2022-10-31T10:04:59.415Z,76.77
2022-10-31T10:07:37.723Z,76.75
2022-10-31T10:10:38.497Z,76.89
2022-10-31T10:13:54.883Z,76.63
2022-10-31T10:16:41.230Z,76.82
2022-10-31T10:19:23.037Z,76.81
2022-10-31T10:22:00.886Z,76.88
2022-10-31T10:24:55.546Z,76.59
2022-10-31T10:27:33.311Z,76.63
2022-10-31T10:30:07.886Z,76.60
2022-10-31T10:32:49.297Z,76.55
2022-10-31T10:35:27.019Z,76.74
2022-10-31T10:38:11.143Z,76.61
2022-10-31T10:40:41.763Z,76.90
2022-10-31T10:43:26.368Z,76.62
2022-10-31T10:46:37.043Z,76.66
2022-10-31T10:49:18.588Z,76.73
2022-10-31T10:54:49.036Z,76.86
2022-10-31T10:57:44.025Z,76.89
2022-10-31T11:00:23.967Z,76.90
2022-10-31T11:02:54.202Z,76.90
2022-10-31T11:05:30.397Z,76.86
2022-10-31T11:07:59.640Z,76.94
2022-10-31T11:10:28.787Z,76.67
2022-10-31T11:13:06.801Z,76.76
2022-10-31T11:15:51.190Z,76.71
2022-10-31T11:21:01.608Z,76.89
2022-10-31T11:23:32.003Z,76.73
2022-10-31T11:26:03.380Z,76.81
2022-10-31T11:28:36.050Z,76.79
2022-10-31T11:31:14.575Z,76.62
2022-10-31T11:33:50.424Z,76.59
2022-10-31T11:36:25.422Z,76.80
2022-10-31T11:38:56.098Z,76.76
2022-10-31T11:41:30.178Z,76.57
2022-10-31T11:44:02.654Z,76.51
2022-10-31T11:46:37.996Z,76.51
2022-10-31T11:49:23.767Z,76.69
2022-10-31T11:51:56.767Z,76.46
2022-10-31T11:54:29.767Z,76.59
2022-10-31T11:56:59.235Z,76.34
2022-10-31T11:59:31.416Z,76.59
2022-10-31T12:02:03.631Z,76.51
2022-10-31T12:04:44.289Z,76.54
2022-10-31T12:07:13.841Z,76.59
2022-10-31T12:09:43.353Z,76.44
2022-10-31T12:12:44.231Z,76.55
2022-10-31T12:15:32.525Z,76.44
2022-10-31T12:18:49.788Z,76.46
2022-10-31T12:21:31.838Z,76.43
2022-10-31T12:24:15.666Z,76.55
2022-10-31T12:26:59.596Z,76.38
2022-10-31T12:29:44.358Z,76.41
2022-10-31T12:32:30.169Z,76.32
2022-10-31T12:35:25.652Z,76.42
2022-10-31T12:38:19.180Z,76.37
2022-10-31T12:41:10.971Z,76.56
2022-10-31T12:43:49.163Z,76.57
2022-10-31T12:46:27.634Z,76.59
2022-10-31T12:49:19.372Z,76.60
2022-10-31T12:51:59.267Z,76.39
2022-10-31T12:54:48.134Z,76.45
2022-10-31T12:57:25.355Z,76.41
2022-10-31T13:00:00.336Z,76.33
2022-10-31T13:02:34.340Z,76.33
2022-10-31T13:05:09.943Z,76.52
2022-10-31T13:07:45.411Z,76.28
2022-10-31T13:10:21.815Z,76.35
2022-10-31T13:12:55.352Z,76.41
2022-10-31T13:15:28.114Z,76.37
2022-10-31T13:18:00.825Z,76.38
2022-10-31T13:20:34.433Z,76.37
2022-10-31T13:23:23.831Z,76.49
2022-10-31T13:26:09.109Z,76.24
2022-10-31T13:28:43.167Z,76.26
2022-10-31T13:31:12.660Z,76.41
2022-10-31T13:33:49.471Z,76.32
2022-10-31T13:36:28.449Z,76.46
2022-10-31T13:39:04.588Z,76.39
2022-10-31T13:41:42.912Z,76.35
2022-10-31T13:44:24.994Z,76.40
2022-10-31T13:46:55.300Z,76.24
2022-10-31T13:49:39.588Z,76.35
2022-10-31T13:52:17.005Z,76.36
2022-10-31T13:54:50.147Z,76.27
2022-10-31T13:57:22.190Z,76.22
2022-10-31T13:59:55.122Z,76.22
2022-10-31T14:02:29.990Z,76.16
2022-10-31T14:05:02.232Z,76.28
2022-10-31T14:07:33.637Z,76.36
2022-10-31T14:10:07.072Z,76.34
2022-10-31T14:12:41.153Z,76.23
2022-10-31T14:15:19.092Z,76.21
2022-10-31T14:17:50.952Z,76.14
2022-10-31T14:20:41.287Z,76.24
2022-10-31T14:23:50.730Z,76.12
2022-10-31T14:26:36.135Z,76.11
2022-10-31T14:29:25.918Z,76.28
2022-10-31T14:31:58.253Z,76.32
2022-10-31T14:34:32.105Z,76.32
2022-10-31T14:37:35.004Z,76.36
2022-10-31T14:40:19.606Z,76.15
2022-10-31T14:43:07.144Z,76.08
2022-10-31T14:45:48.764Z,76.35
2022-10-31T14:48:44.132Z,76.23
2022-10-31T14:51:17.209Z,76.18
2022-10-31T14:53:50.527Z,76.33
2022-10-31T14:56:25.897Z,76.21
2022-10-31T14:59:00.040Z,76.13
2022-10-31T15:01:32.262Z,76.25
2022-10-31T15:04:24.299Z,76.11
2022-10-31T15:07:00.233Z,76.20
2022-10-31T15:09:32.072Z,76.22
2022-10-31T15:12:02.060Z,76.16
2022-10-31T15:14:33.815Z,75.95
2022-10-31T15:17:05.679Z,75.99
2022-10-31T15:19:37.655Z,76.15
2022-10-31T15:22:07.909Z,76.13
2022-10-31T15:24:39.873Z,76.05
2022-10-31T15:27:15.362Z,76.17
2022-10-31T15:29:53.441Z,75.96
2022-10-31T15:32:25.142Z,76.01
2022-10-31T15:34:56.656Z,75.97
2022-10-31T15:37:27.877Z,76.13
2022-10-31T15:39:57.542Z,75.93
2022-10-31T15:42:29.451Z,76.01
2022-10-31T15:45:06.685Z,75.89
2022-10-31T15:47:38.048Z,76.09
2022-10-31T15:50:21.064Z,75.90
2022-10-31T15:52:52.178Z,75.89
2022-10-31T15:55:23.837Z,75.84
2022-10-31T15:57:56.211Z,75.83
2022-10-31T16:00:30.338Z,75.86
2022-10-31T16:03:27.405Z,75.99
2022-10-31T16:05:58.295Z,76.01
2022-10-31T16:08:38.195Z,76.03
2022-10-31T16:11:24.580Z,75.83
2022-10-31T16:14:00.572Z,75.94
2022-10-31T16:16:35.565Z,75.95
2022-10-31T16:19:08.413Z,75.79
2022-10-31T16:21:40.546Z,76.00
2022-10-31T16:24:20.913Z,75.97
2022-10-31T16:26:52.138Z,75.97
2022-10-31T16:29:30.123Z,75.81
2022-10-31T16:32:01.009Z,75.96
2022-10-31T16:34:30.324Z,75.90
2022-10-31T16:36:59.402Z,75.80
2022-10-31T16:39:28.664Z,75.86
2022-10-31T16:41:59.005Z,75.95
2022-10-31T16:44:29.339Z,75.78
2022-10-31T16:47:15.259Z,75.95
2022-10-31T16:49:46.056Z,75.86
2022-10-31T16:52:15.643Z,75.89
2022-10-31T16:54:44.852Z,75.76
2022-10-31T16:57:19.536Z,75.92
2022-10-31T16:59:50.814Z,75.97
2022-10-31T17:02:22.258Z,75.86
2022-10-31T17:04:55.643Z,75.81
2022-10-31T17:07:26.509Z,75.78
2022-10-31T17:09:55.683Z,75.87
2022-10-31T17:12:28.357Z,75.83
2022-10-31T17:14:57.808Z,75.74
2022-10-31T17:17:28.909Z,75.84
2022-10-31T17:19:58.297Z,75.88
2022-10-31T17:22:27.450Z,75.87
2022-10-31T17:24:56.838Z,75.72
2022-10-31T17:27:25.908Z,75.68
2022-10-31T17:29:55.481Z,75.72
2022-10-31T17:32:24.816Z,75.78
2022-10-31T17:34:55.599Z,75.93
2022-10-31T17:37:25.291Z,75.81
2022-10-31T17:39:54.231Z,75.75
2022-10-31T17:42:23.555Z,75.77
2022-10-31T17:44:52.858Z,75.89
2022-10-31T17:47:22.211Z,75.90
2022-10-31T17:49:53.233Z,75.66
2022-10-31T17:52:24.581Z,75.86
2022-10-31T17:54:53.855Z,75.71
2022-10-31T17:57:22.950Z,75.67
2022-10-31T17:59:52.303Z,75.71
2022-10-31T18:02:21.509Z,75.69
2022-10-31T18:04:50.892Z,75.79
2022-10-31T18:07:20.338Z,75.73
2022-10-31T18:09:50.767Z,75.83
2022-10-31T18:12:20.278Z,75.78
2022-10-31T18:14:49.403Z,75.74
2022-10-31T18:17:18.765Z,75.88
2022-10-31T18:19:48.205Z,75.78
2022-10-31T18:22:17.640Z,75.69
2022-10-31T18:24:46.778Z,75.77
2022-10-31T18:27:17.685Z,75.77
2022-10-31T18:29:46.930Z,75.87
2022-10-31T18:32:16.316Z,75.74
2022-10-31T18:34:45.579Z,75.74
2022-10-31T18:37:14.948Z,75.73
2022-10-31T18:39:44.190Z,75.67
2022-10-31T18:42:13.371Z,75.81
2022-10-31T18:44:45.463Z,75.82
2022-10-31T18:47:14.869Z,75.74
2022-10-31T18:49:44.199Z,75.78
2022-10-31T18:52:13.538Z,75.85
2022-10-31T18:54:42.719Z,75.62
2022-10-31T18:57:12.067Z,75.75
2022-10-31T18:59:41.226Z,75.69
2022-10-31T19:02:15.266Z,75.79
2022-10-31T19:04:44.663Z,75.84
2022-10-31T19:07:13.986Z,75.74
2022-10-31T19:09:43.745Z,75.75
2022-10-31T19:12:13.113Z,75.87
2022-10-31T19:14:42.675Z,75.84
2022-10-31T19:17:13.488Z,75.88
2022-10-31T19:19:43.458Z,75.83
2022-10-31T19:22:12.864Z,75.87
2022-10-31T19:24:42.048Z,75.83
2022-10-31T19:27:11.896Z,75.89
2022-10-31T19:29:42.384Z,75.82
2022-10-31T19:32:13.263Z,75.79
2022-10-31T19:34:42.744Z,75.80
2022-10-31T19:37:12.145Z,75.83
2022-10-31T19:39:44.166Z,75.65
2022-10-31T19:42:15.099Z,75.87
2022-10-31T19:44:44.709Z,75.63
2022-10-31T19:47:15.493Z,75.87
2022-10-31T19:49:44.790Z,75.94
2022-10-31T19:52:14.293Z,75.88
2022-10-31T19:54:43.743Z,75.90
2022-10-31T19:57:13.574Z,75.71
2022-10-31T19:59:43.062Z,75.75
2022-10-31T20:02:19.892Z,75.74
2022-10-31T20:04:49.965Z,75.88
2022-10-31T20:07:20.296Z,75.75
2022-10-31T20:09:49.198Z,75.71
2022-10-31T20:12:18.623Z,75.65
2022-10-31T20:14:47.724Z,75.90
2022-10-31T20:17:18.810Z,75.86
2022-10-31T20:19:48.148Z,75.82
2022-10-31T20:22:17.322Z,75.63
2022-10-31T20:24:46.763Z,75.72
2022-10-31T20:27:15.908Z,75.70
2022-10-31T20:29:45.208Z,75.71
2022-10-31T20:32:14.519Z,75.84
2022-10-31T20:34:45.449Z,75.96
2022-10-31T20:37:15.191Z,75.72
2022-10-31T20:39:44.068Z,75.83
2022-10-31T20:42:13.516Z,75.84
2022-10-31T20:44:42.643Z,75.91
2022-10-31T20:47:11.873Z,75.77
2022-10-31T20:49:41.019Z,75.82
2022-10-31T20:52:12.113Z,75.77
2022-10-31T20:54:41.711Z,75.77
2022-10-31T20:57:11.198Z,75.94
2022-10-31T20:59:40.221Z,75.84
2022-10-31T21:02:10.491Z,75.71
2022-10-31T21:04:39.857Z,75.74
2022-10-31T21:07:09.199Z,75.72
2022-10-31T21:09:39.867Z,75.86
2022-10-31T21:12:09.336Z,75.74
2022-10-31T21:14:38.988Z,75.96
2022-10-31T21:17:08.757Z,75.70
2022-10-31T21:19:38.083Z,75.71
2022-10-31T21:22:07.169Z,75.82
2022-10-31T21:24:42.229Z,75.72
2022-10-31T21:27:12.547Z,75.81
2022-10-31T21:29:42.219Z,75.85
2022-10-31T21:32:11.591Z,75.77
2022-10-31T21:34:40.850Z,75.72
2022-10-31T21:37:10.444Z,75.84
2022-10-31T21:39:40.984Z,75.92
2022-10-31T21:42:10.583Z,75.75
2022-10-31T21:44:39.761Z,75.89
2022-10-31T21:47:09.113Z,75.74
2022-10-31T21:49:38.361Z,75.79
2022-10-31T21:52:07.713Z,75.93
2022-10-31T21:54:37.387Z,75.83
2022-10-31T21:57:08.467Z,75.79
2022-10-31T21:59:37.899Z,76.02
2022-10-31T22:02:07.479Z,75.80
2022-10-31T22:04:36.668Z,75.80
2022-10-31T22:07:05.738Z,75.70
2022-10-31T22:09:34.951Z,75.80
2022-10-31T22:12:06.732Z,75.80
2022-10-31T22:14:37.558Z,76.00
2022-10-31T22:17:07.199Z,75.88
2022-10-31T22:19:36.566Z,75.83
2022-10-31T22:22:05.622Z,75.95
2022-10-31T22:24:34.909Z,75.79
2022-10-31T22:27:04.536Z,76.02
2022-10-31T22:29:37.591Z,75.88
2022-10-31T22:32:07.497Z,75.98
2022-10-31T22:34:36.771Z,76.01
2022-10-31T22:37:06.103Z,75.96
2022-10-31T22:39:35.213Z,75.84
2022-10-31T22:42:04.650Z,75.93
2022-10-31T22:44:33.762Z,75.79
2022-10-31T22:47:04.748Z,75.82
2022-10-31T22:49:34.087Z,75.81
2022-10-31T22:52:03.671Z,75.83
2022-10-31T22:54:32.881Z,75.88
2022-10-31T22:57:02.226Z,75.99
2022-10-31T22:59:31.438Z,75.79
2022-10-31T23:02:00.953Z,75.93
2022-10-31T23:04:31.343Z,75.90
2022-10-31T23:07:00.754Z,75.76
2022-10-31T23:09:30.158Z,75.83
2022-10-31T23:12:19.589Z,75.82
2022-10-31T23:14:47.781Z,75.88
2022-10-31T23:17:18.739Z,75.76
2022-10-31T23:19:49.435Z,75.81
2022-10-31T23:22:18.845Z,75.85
2022-10-31T23:24:48.857Z,76.02
2022-10-31T23:27:19.510Z,76.06
2022-10-31T23:29:50.839Z,75.86
2022-10-31T23:32:22.998Z,75.93
2022-10-31T23:34:55.576Z,76.04
2022-10-31T23:37:27.042Z,75.80
2022-10-31T23:39:56.362Z,75.80
2022-10-31T23:42:26.942Z,75.99
2022-10-31T23:44:56.335Z,75.79
2022-10-31T23:47:26.144Z,75.87
2022-10-31T23:49:56.768Z,75.97
2022-10-31T23:52:26.307Z,75.94
2022-10-31T23:54:55.534Z,75.85
2022-10-31T23:57:24.717Z,75.97
2022-10-31T23:59:53.845Z,75.75
